Time;durP1;ratioP1;P1;durP2;ratioP2;P2;SDS_P1;SDS_P2;PMS_P1;PMS_P2;Temp;Humidity;BMP_temperature;BMP_pressure;BME280_temperature;BME280_humidity;BME280_pressure;Samples;Min_cycle;Max_cycle;Signal;HPM_P1;HPM_P2
2021/09/19 00:00:07;;;;;;;5.38;3.03;;;;;;;13.82;70.20;100855.38;4922052;28;129095;-60
2021/09/19 00:02:33;;;;;;;5.18;3.20;;;;;;;13.80;70.18;100857.59;4922678;28;98556;-60
2021/09/19 00:04:59;;;;;;;7.60;2.90;;;;;;;13.80;70.02;100861.09;4922763;28;97789;-60
2021/09/19 00:07:25;;;;;;;5.68;3.20;;;;;;;13.79;70.26;100861.38;4920384;28;127484;-62
2021/09/19 00:09:51;;;;;;;4.80;3.30;;;;;;;13.79;70.62;100862.16;4919605;28;127094;-62
2021/09/19 00:12:17;;;;;;;6.55;3.25;;;;;;;13.78;70.48;100860.56;4921213;28;127445;-60
2021/09/19 00:14:43;;;;;;;5.47;3.50;;;;;;;13.78;70.66;100854.34;4921894;28;117965;-60
2021/09/19 00:17:10;;;;;;;7.00;3.38;;;;;;;13.78;70.46;100857.84;4921028;28;128066;-60
2021/09/19 00:19:36;;;;;;;9.68;3.45;;;;;;;13.76;70.68;100854.63;4923247;28;99086;-62
2021/09/19 00:22:02;;;;;;;6.32;3.05;;;;;;;13.69;69.94;100857.63;4921873;28;103591;-62
2021/09/19 00:24:28;;;;;;;4.55;3.08;;;;;;;13.64;69.80;100860.38;4922125;28;97999;-61
2021/09/19 00:26:54;;;;;;;3.75;3.10;;;;;;;13.58;70.57;100861.47;4920550;28;128384;-62
2021/09/19 00:29:21;;;;;;;5.63;2.63;;;;;;;13.54;69.65;100854.19;4922296;28;127982;-60
2021/09/19 00:31:47;;;;;;;5.10;2.90;;;;;;;13.51;69.79;100860.94;4921838;28;98505;-60
2021/09/19 00:34:13;;;;;;;3.70;2.78;;;;;;;13.48;69.41;100859.63;4922890;28;111514;-60
2021/09/19 00:36:39;;;;;;;3.75;2.72;;;;;;;13.46;69.33;100850.94;4921304;28;118651;-62
2021/09/19 00:39:05;;;;;;;6.35;2.95;;;;;;;13.44;68.99;100853.13;4921615;28;128803;-63
2021/09/19 00:41:31;;;;;;;4.00;2.78;;;;;;;13.44;69.59;100858.56;4919029;28;99012;-62
2021/09/19 00:43:57;;;;;;;3.22;2.50;;;;;;;13.43;69.11;100862.31;4923027;28;97876;-62
2021/09/19 00:46:23;;;;;;;4.50;2.33;;;;;;;13.41;68.69;100861.00;4919202;28;127756;-60
2021/09/19 00:48:49;;;;;;;3.63;2.40;;;;;;;13.37;68.17;100855.34;4920152;28;106225;-62
2021/09/19 00:51:15;;;;;;;2.88;2.50;;;;;;;13.36;67.89;100864.53;4918544;28;127737;-60
2021/09/19 00:53:41;;;;;;;4.57;2.28;;;;;;;13.34;67.74;100857.78;4920720;28;117678;-63
2021/09/19 00:56:07;;;;;;;3.67;2.35;;;;;;;13.32;67.90;100860.75;4902462;28;127243;-62
2021/09/19 00:58:33;;;;;;;6.47;3.03;;;;;;;13.31;67.47;100856.41;4887928;28;98393;-60
2021/09/19 01:01:00;;;;;;;3.85;1.95;;;;;;;13.27;66.95;100852.66;4921291;28;98207;-62
2021/09/19 01:03:27;;;;;;;3.20;2.10;;;;;;;13.26;66.77;100851.03;4920809;28;117030;-62
2021/09/19 01:05:53;;;;;;;4.30;1.98;;;;;;;13.25;66.55;100860.25;4919515;28;98326;-62
2021/09/19 01:08:20;;;;;;;2.33;2.08;;;;;;;13.19;66.31;100848.56;4921659;28;112083;-60
2021/09/19 01:10:46;;;;;;;4.40;2.58;;;;;;;13.18;65.99;100852.38;4920200;28;98520;-62
2021/09/19 01:13:12;;;;;;;3.17;2.17;;;;;;;13.15;65.58;100855.63;4920931;28;116936;-60
2021/09/19 01:15:42;;;;;;;4.15;2.15;;;;;;;13.12;65.90;100853.47;4921333;28;99750;-60
2021/09/19 01:18:08;;;;;;;4.53;1.88;;;;;;;13.12;65.71;100861.59;4918630;28;126014;-62
2021/09/19 01:20:35;;;;;;;2.97;1.70;;;;;;;13.10;64.84;100860.25;4920911;28;111079;-60
2021/09/19 01:23:09;;;;;;;2.42;1.90;;;;;;;13.08;65.39;100862.41;4921317;28;97956;-62
2021/09/19 01:25:36;;;;;;;3.67;2.03;;;;;;;13.08;64.75;100863.22;4920476;28;98960;-62
2021/09/19 01:28:03;;;;;;;5.18;1.88;;;;;;;13.08;64.93;100863.22;4920644;28;111837;-60
2021/09/19 01:30:29;;;;;;;3.63;1.95;;;;;;;13.08;64.52;100865.91;4921387;28;98649;-60
2021/09/19 01:32:55;;;;;;;4.22;1.75;;;;;;;13.08;64.32;100862.41;4920813;28;118561;-60
2021/09/19 01:35:22;;;;;;;3.55;2.05;;;;;;;13.07;64.11;100858.91;4920270;28;126723;-62
2021/09/19 01:37:48;;;;;;;3.10;1.88;;;;;;;13.06;64.42;100865.41;4920495;28;98810;-62
2021/09/19 01:40:15;;;;;;;4.05;2.35;;;;;;;13.06;63.84;100865.41;4921186;28;126962;-60
2021/09/19 01:42:42;;;;;;;4.55;2.13;;;;;;;13.04;63.87;100859.44;4921051;28;97809;-62
2021/09/19 01:45:09;;;;;;;3.83;2.05;;;;;;;13.06;63.90;100859.19;4920855;28;112145;-59
2021/09/19 01:47:35;;;;;;;2.50;1.90;;;;;;;13.04;63.87;100859.44;4919225;28;117061;-60
2021/09/19 01:50:01;;;;;;;6.43;2.05;;;;;;;13.04;63.37;100862.16;4921097;28;98233;-60
2021/09/19 01:52:29;;;;;;;4.15;2.03;;;;;;;13.01;63.38;100852.69;4921212;28;97851;-63
2021/09/19 01:54:55;;;;;;;3.20;1.80;;;;;;;13.01;63.47;100855.41;4920681;28;98864;-60
2021/09/19 01:57:22;;;;;;;3.17;1.90;;;;;;;13.01;62.75;100858.09;4919527;28;126698;-60
2021/09/19 01:59:50;;;;;;;2.72;2.00;;;;;;;12.99;62.75;100852.16;4921597;28;97845;-62
2021/09/19 02:02:17;;;;;;;2.13;1.58;;;;;;;12.96;62.59;100849.97;4923485;28;98098;-60
2021/09/19 02:04:43;;;;;;;3.35;2.13;;;;;;;12.96;62.71;100849.19;4924838;28;98562;-60
2021/09/19 02:07:09;;;;;;;2.67;1.77;;;;;;;12.95;62.74;100850.25;4905035;28;113978;-62
2021/09/19 02:09:35;;;;;;;3.15;1.77;;;;;;;12.94;62.66;100845.94;4922367;28;100404;-60
2021/09/19 02:12:01;;;;;;;2.00;1.70;;;;;;;12.95;62.45;100842.16;4924528;28;98145;-62
2021/09/19 02:14:27;;;;;;;3.33;2.00;;;;;;;12.95;62.20;100850.25;4924250;28;112040;-62
2021/09/19 02:16:53;;;;;;;3.10;1.88;;;;;;;12.95;62.50;100852.97;4923207;28;104488;-60
2021/09/19 02:19:19;;;;;;;2.92;2.25;;;;;;;12.92;62.61;100846.19;4923000;28;128207;-62
2021/09/19 02:21:46;;;;;;;2.72;1.80;;;;;;;12.92;62.37;100843.50;4922716;28;117348;-60
2021/09/19 02:24:12;;;;;;;4.50;1.92;;;;;;;12.89;62.29;100840.53;4922936;28;127986;-62
2021/09/19 02:26:38;;;;;;;3.30;1.60;;;;;;;12.88;62.05;100834.31;4923057;28;98389;-60
2021/09/19 02:29:04;;;;;;;3.70;1.88;;;;;;;12.87;62.00;100837.28;4924068;28;97718;-60
2021/09/19 02:31:31;;;;;;;2.78;1.90;;;;;;;12.84;62.30;100841.34;4922952;28;117623;-60
2021/09/19 02:33:58;;;;;;;4.15;1.60;;;;;;;12.82;62.20;100840.81;4923391;28;98540;-60
2021/09/19 02:36:24;;;;;;;4.18;1.88;;;;;;;12.82;62.08;100840.81;4923264;28;119671;-60
2021/09/19 02:38:51;;;;;;;2.83;1.70;;;;;;;12.81;61.90;100841.09;4923245;28;114925;-60
2021/09/19 02:41:17;;;;;;;3.45;1.95;;;;;;;12.78;62.16;100835.16;4923495;28;108188;-62
2021/09/19 02:43:43;;;;;;;4.07;1.92;;;;;;;12.79;62.16;100838.66;4921012;28;127455;-62
2021/09/19 02:46:09;;;;;;;3.15;1.88;;;;;;;12.80;62.28;100839.47;4904354;28;128029;-62
2021/09/19 02:48:35;;;;;;;2.22;1.50;;;;;;;12.78;62.11;100837.84;4921914;28;127271;-62
2021/09/19 02:51:01;;;;;;;3.38;1.80;;;;;;;12.80;62.11;100839.47;4922075;28;98067;-62
2021/09/19 02:53:27;;;;;;;2.83;2.00;;;;;;;12.80;62.36;100831.34;4905885;28;98235;-62
2021/09/19 02:55:53;;;;;;;2.42;1.63;;;;;;;12.80;62.32;100834.88;4922784;28;109176;-60
2021/09/19 02:58:20;;;;;;;3.40;2.05;;;;;;;12.80;62.17;100834.88;4922622;28;98003;-60
2021/09/19 03:00:46;;;;;;;3.17;1.95;;;;;;;12.80;61.84;100831.34;4923557;28;118083;-62
2021/09/19 03:03:12;;;;;;;3.90;1.98;;;;;;;12.80;61.88;100826.75;4921546;28;128509;-60
2021/09/19 03:05:38;;;;;;;2.72;1.95;;;;;;;12.82;62.02;100830.00;4922329;28;126996;-60
2021/09/19 03:08:04;;;;;;;6.30;2.50;;;;;;;12.81;61.80;100832.97;4921896;28;126440;-61
2021/09/19 03:10:30;;;;;;;4.10;2.30;;;;;;;12.80;62.24;100832.16;4922998;28;109904;-60
2021/09/19 03:12:56;;;;;;;4.80;2.15;;;;;;;12.78;61.87;100827.03;4919456;28;109284;-60
2021/09/19 03:15:22;;;;;;;4.63;2.40;;;;;;;12.79;61.88;100835.97;4921927;28;127167;-62
2021/09/19 03:17:48;;;;;;;3.78;2.20;;;;;;;12.82;61.77;100837.31;4920027;28;127332;-62
2021/09/19 03:20:16;;;;;;;3.25;2.25;;;;;;;12.86;61.85;100835.69;4906168;28;106226;-61
2021/09/19 03:22:42;;;;;;;3.50;2.20;;;;;;;12.88;61.35;100836.22;4922254;28;98533;-59
2021/09/19 03:25:09;;;;;;;4.18;2.10;;;;;;;12.88;61.11;100834.31;4923640;28;102496;-60
2021/09/19 03:27:35;;;;;;;3.95;2.40;;;;;;;12.93;60.95;100833.47;4922616;28;97877;-60
2021/09/19 03:30:01;;;;;;;3.70;2.10;;;;;;;12.96;60.97;100832.94;4921984;28;117615;-60
2021/09/19 03:32:27;;;;;;;4.07;2.28;;;;;;;12.98;60.50;100839.72;4922420;28;98626;-61
2021/09/19 03:34:53;;;;;;;3.47;2.20;;;;;;;13.02;60.89;100831.84;4923482;28;97873;-60
2021/09/19 03:37:19;;;;;;;2.97;2.30;;;;;;;13.02;60.71;100839.97;4921099;28;117951;-61
2021/09/19 03:39:45;;;;;;;3.83;2.50;;;;;;;13.02;60.01;100837.28;4921440;28;97797;-61
2021/09/19 03:42:11;;;;;;;3.13;2.42;;;;;;;13.02;59.97;100829.16;4921599;28;126682;-60
2021/09/19 03:44:37;;;;;;;4.50;2.38;;;;;;;13.02;60.21;100832.66;4922128;28;98841;-60
2021/09/19 03:47:03;;;;;;;4.10;2.30;;;;;;;13.01;60.35;100841.06;4900878;28;114171;-60
2021/09/19 03:49:31;;;;;;;4.00;2.80;;;;;;;13.02;59.50;100848.09;4904325;28;97771;-62
2021/09/19 03:51:57;;;;;;;4.47;2.65;;;;;;;13.02;59.48;100845.38;4895163;28;98230;-60
2021/09/19 03:54:23;;;;;;;3.55;2.05;;;;;;;12.98;59.73;100850.53;4868977;28;130420;-62
2021/09/19 03:56:49;;;;;;;5.15;2.55;;;;;;;12.99;59.21;100841.31;4921632;28;98208;-60
2021/09/19 03:59:15;;;;;;;3.90;2.58;;;;;;;12.97;59.58;100848.13;4921806;28;118107;-60
2021/09/19 04:01:41;;;;;;;3.67;2.22;;;;;;;12.99;59.24;100848.63;4921111;28;98413;-60
2021/09/19 04:04:07;;;;;;;4.45;2.42;;;;;;;12.97;58.75;100845.41;4921847;28;128297;-61
2021/09/19 04:06:33;;;;;;;3.13;2.40;;;;;;;12.98;58.79;100847.81;4921001;28;125812;-60
2021/09/19 04:08:59;;;;;;;3.80;2.63;;;;;;;12.98;58.60;100853.25;4921841;28;115584;-60
2021/09/19 04:11:25;;;;;;;4.40;2.60;;;;;;;12.97;58.99;100848.13;4921154;28;125979;-60
2021/09/19 04:13:51;;;;;;;5.03;3.35;;;;;;;12.96;58.48;100849.97;4919760;28;128353;-60
2021/09/19 04:16:17;;;;;;;6.13;3.22;;;;;;;12.94;58.95;100849.47;4921218;28;127195;-60
2021/09/19 04:18:43;;;;;;;6.38;3.13;;;;;;;12.92;58.84;100851.63;4920568;28;97844;-60
2021/09/19 04:21:09;;;;;;;5.68;2.97;;;;;;;12.92;59.19;100854.31;4921386;28;126557;-60
2021/09/19 04:23:35;;;;;;;4.05;3.05;;;;;;;12.92;59.28;100856.22;4921031;28;128479;-60
2021/09/19 04:26:01;;;;;;;5.00;2.90;;;;;;;12.93;58.82;100860.53;4919770;28;127316;-60
2021/09/19 04:28:27;;;;;;;4.28;2.70;;;;;;;12.90;59.20;100847.56;4920682;28;98372;-60
2021/09/19 04:30:53;;;;;;;4.50;2.85;;;;;;;12.92;59.35;100857.03;4920632;28;128357;-60
2021/09/19 04:33:19;;;;;;;4.38;2.47;;;;;;;12.91;58.97;100854.59;4921376;28;126292;-62
2021/09/19 04:35:45;;;;;;;4.15;2.85;;;;;;;12.92;58.73;100853.50;4887379;28;120249;-61
2021/09/19 04:38:13;;;;;;;3.78;2.40;;;;;;;12.92;58.97;100864.34;4899513;28;115470;-60
2021/09/19 04:40:39;;;;;;;3.60;2.45;;;;;;;12.91;58.68;100862.72;4902960;28;98498;-60
2021/09/19 04:43:05;;;;;;;4.43;2.53;;;;;;;12.87;58.43;100859.75;4917927;28;128060;-60
2021/09/19 04:45:31;;;;;;;5.13;2.83;;;;;;;12.86;58.85;100857.31;4919365;28;127362;-60
2021/09/19 04:47:57;;;;;;;4.35;2.47;;;;;;;12.86;58.91;100870.84;4918108;28;119729;-60
2021/09/19 04:50:23;;;;;;;3.70;2.50;;;;;;;12.85;59.00;100858.38;4920366;28;128618;-60
2021/09/19 04:52:49;;;;;;;3.85;2.30;;;;;;;12.83;59.18;100866.78;4920699;28;127266;-61
2021/09/19 04:55:15;;;;;;;5.35;2.70;;;;;;;12.80;58.91;100858.41;4902864;28;112681;-62
2021/09/19 04:57:41;;;;;;;4.78;2.30;;;;;;;12.79;59.31;100865.72;4918950;28;101701;-60
2021/09/19 05:00:08;;;;;;;3.72;2.85;;;;;;;12.79;59.56;100865.72;4918526;28;127611;-60
2021/09/19 05:02:34;;;;;;;4.60;2.75;;;;;;;12.80;59.77;100871.94;4920926;28;98154;-61
2021/09/19 05:05:00;;;;;;;3.17;2.50;;;;;;;12.78;59.09;100874.91;4920977;28;125958;-61
2021/09/19 05:07:26;;;;;;;4.10;2.47;;;;;;;12.78;59.52;100864.91;4920916;28;117837;-60
2021/09/19 05:09:52;;;;;;;3.15;2.60;;;;;;;12.78;59.84;100867.59;4902853;28;126479;-62
2021/09/19 05:12:18;;;;;;;3.95;2.50;;;;;;;12.80;59.83;100871.94;4903098;28;98485;-62
2021/09/19 05:14:44;;;;;;;3.65;2.38;;;;;;;12.80;59.74;100871.94;4920924;28;127762;-62
2021/09/19 05:17:10;;;;;;;3.80;2.50;;;;;;;12.81;59.52;100874.38;4919643;28;97961;-60
2021/09/19 05:19:36;;;;;;;3.53;2.78;;;;;;;12.82;59.58;100864.38;4918309;28;127605;-60
2021/09/19 05:22:02;;;;;;;3.42;2.80;;;;;;;12.80;59.11;100867.31;4918327;28;128128;-60
2021/09/19 05:24:28;;;;;;;4.00;2.72;;;;;;;12.81;59.05;100866.25;4920115;28;128026;-60
2021/09/19 05:26:54;;;;;;;3.85;2.63;;;;;;;12.81;59.02;100870.84;4918943;28;117415;-60
2021/09/19 05:29:20;;;;;;;3.85;2.50;;;;;;;12.76;59.00;100868.94;4919120;28;127085;-61
2021/09/19 05:31:46;;;;;;;4.28;2.40;;;;;;;12.76;58.70;100869.75;4902345;28;128439;-59
2021/09/19 05:34:12;;;;;;;2.97;2.50;;;;;;;12.73;58.98;100864.91;4918797;28;116635;-60
2021/09/19 05:36:38;;;;;;;3.08;2.60;;;;;;;12.75;59.00;100856.53;4919096;28;118129;-60
2021/09/19 05:39:05;;;;;;;3.67;2.58;;;;;;;12.75;59.85;100864.63;4920059;28;121543;-60
2021/09/19 05:41:32;;;;;;;3.92;2.55;;;;;;;12.76;59.40;100858.94;4920607;28;98452;-60
2021/09/19 05:43:58;;;;;;;3.50;2.40;;;;;;;12.79;59.91;100865.72;4921130;28;98077;-62
2021/09/19 05:46:24;;;;;;;3.85;3.03;;;;;;;12.82;60.02;100857.06;4918849;28;98105;-60
2021/09/19 05:48:50;;;;;;;5.97;3.10;;;;;;;12.85;59.34;100859.22;4921201;28;111263;-62
2021/09/19 05:51:16;;;;;;;4.28;2.72;;;;;;;12.87;59.09;100862.44;4919757;28;128188;-62
2021/09/19 05:53:42;;;;;;;5.30;3.08;;;;;;;12.88;59.59;100863.25;4919994;28;128048;-60
2021/09/19 05:56:08;;;;;;;5.28;2.90;;;;;;;12.89;59.53;100859.47;4920363;28;100385;-60
2021/09/19 05:58:34;;;;;;;3.70;2.80;;;;;;;12.89;59.55;100860.31;4920462;28;110066;-60
2021/09/19 06:01:01;;;;;;;4.10;2.58;;;;;;;12.90;59.53;100861.91;4920016;28;128205;-63
2021/09/19 06:03:27;;;;;;;3.40;2.72;;;;;;;12.93;59.80;100864.09;4920387;28;107689;-60
2021/09/19 06:05:53;;;;;;;5.78;3.13;;;;;;;12.95;59.41;100864.59;4920418;28;117342;-60
2021/09/19 06:08:19;;;;;;;5.30;2.88;;;;;;;12.98;59.77;100855.13;4918471;28;127109;-60
2021/09/19 06:10:45;;;;;;;7.35;4.43;;;;;;;13.01;59.13;100852.69;4886742;28;98844;-62
2021/09/19 06:13:11;;;;;;;10.55;6.10;;;;;;;13.03;59.60;100858.63;4919340;28;127464;-62
2021/09/19 06:15:37;;;;;;;7.97;4.95;;;;;;;13.09;59.97;100855.94;4917942;28;117782;-63
2021/09/19 06:18:03;;;;;;;5.95;3.85;;;;;;;13.12;59.44;100858.88;4916862;28;125877;-62
2021/09/19 06:20:29;;;;;;;6.07;3.65;;;;;;;13.15;59.53;100862.94;4914752;28;126493;-60
2021/09/19 06:22:55;;;;;;;4.38;3.00;;;;;;;13.18;59.79;100859.69;4913976;28;113044;-62
2021/09/19 06:25:21;;;;;;;6.93;3.30;;;;;;;13.22;59.55;100852.63;4899511;28;98343;-61
2021/09/19 06:27:47;;;;;;;3.72;2.88;;;;;;;13.25;59.67;100855.63;4914642;28;128020;-60
2021/09/19 06:30:13;;;;;;;4.75;3.00;;;;;;;13.31;59.46;100855.63;4914971;28;128230;-62
2021/09/19 06:32:39;;;;;;;4.20;2.58;;;;;;;13.34;58.94;100855.88;4915403;28;116216;-60
2021/09/19 06:35:06;;;;;;;3.83;2.60;;;;;;;13.39;58.71;100855.84;4916939;28;117430;-60
2021/09/19 06:37:32;;;;;;;3.83;2.42;;;;;;;13.42;58.40;100857.22;4912311;28;104375;-60
2021/09/19 06:39:58;;;;;;;3.75;2.40;;;;;;;13.44;58.37;100861.25;4917020;28;120088;-60
2021/09/19 06:42:24;;;;;;;3.95;2.42;;;;;;;13.48;57.88;100865.03;4915889;28;127598;-63
2021/09/19 06:44:50;;;;;;;3.95;2.53;;;;;;;13.51;58.18;100866.38;4917043;28;107871;-61
2021/09/19 06:47:17;;;;;;;3.67;2.50;;;;;;;13.56;57.55;100865.53;4916426;28;128426;-60
2021/09/19 06:49:43;;;;;;;2.95;2.40;;;;;;;13.59;57.70;100864.97;4918594;28;98312;-62
2021/09/19 06:52:09;;;;;;;5.18;2.55;;;;;;;13.61;57.24;100866.34;4919312;28;126402;-61
2021/09/19 06:54:35;;;;;;;4.38;2.10;;;;;;;13.64;57.34;100864.97;4920429;28;117707;-60
2021/09/19 06:57:01;;;;;;;3.20;2.10;;;;;;;13.67;57.23;100867.91;4918417;28;127929;-60
2021/09/19 06:59:27;;;;;;;3.45;2.40;;;;;;;13.70;57.21;100861.13;4916518;28;118382;-60
2021/09/19 07:01:53;;;;;;;3.42;2.17;;;;;;;13.75;56.62;100856.53;4919273;28;98002;-60
2021/09/19 07:04:19;;;;;;;2.72;2.28;;;;;;;13.78;57.18;100868.69;4919332;28;116199;-60
2021/09/19 07:06:46;;;;;;;2.67;2.00;;;;;;;13.82;56.58;100858.91;4901405;28;98591;-60
2021/09/19 07:09:13;;;;;;;4.28;1.92;;;;;;;13.86;55.86;100859.16;4902003;28;99317;-62
2021/09/19 07:11:39;;;;;;;3.60;2.05;;;;;;;13.91;56.46;100864.53;4918463;28;97957;-63
2021/09/19 07:14:05;;;;;;;3.83;2.35;;;;;;;13.95;56.27;100862.91;4910215;28;117356;-60
2021/09/19 07:16:31;;;;;;;2.58;1.98;;;;;;;14.03;56.46;100858.78;4917477;28;125719;-61
2021/09/19 07:18:57;;;;;;;4.70;2.13;;;;;;;14.09;55.83;100865.81;4920120;28;99049;-60
2021/09/19 07:21:23;;;;;;;2.20;1.52;;;;;;;14.15;55.92;100862.78;4919117;28;127338;-62
2021/09/19 07:23:50;;;;;;;3.15;1.80;;;;;;;14.22;55.33;100857.03;4919059;28;97871;-62
2021/09/19 07:26:16;;;;;;;2.55;1.83;;;;;;;14.30;55.21;100858.34;4917695;28;98193;-62
2021/09/19 07:28:42;;;;;;;2.95;2.10;;;;;;;14.38;55.10;100855.84;4919101;28;126290;-60
2021/09/19 07:31:08;;;;;;;3.90;2.13;;;;;;;14.47;55.48;100848.72;4919269;28;120791;-62
2021/09/19 07:33:34;;;;;;;3.80;1.90;;;;;;;14.57;55.52;100863.31;4918979;28;107753;-60
2021/09/19 07:36:01;;;;;;;3.03;2.00;;;;;;;14.65;54.09;100866.22;4918871;28;128135;-60
2021/09/19 07:38:27;;;;;;;2.88;1.85;;;;;;;14.71;54.07;100854.22;4919297;28;111162;-60
2021/09/19 07:40:54;;;;;;;3.72;2.20;;;;;;;14.77;53.91;100859.59;4919461;28;97787;-62
2021/09/19 07:43:20;;;;;;;2.60;2.00;;;;;;;14.82;54.03;100859.56;4919736;28;98110;-60
2021/09/19 07:45:46;;;;;;;3.20;1.83;;;;;;;14.88;53.90;100855.69;4918464;28;126082;-62
2021/09/19 07:48:14;;;;;;;3.08;1.95;;;;;;;14.94;54.38;100860.81;4918903;28;112574;-60
2021/09/19 07:50:40;;;;;;;2.60;2.25;;;;;;;15.04;54.09;100861.78;4917913;28;98272;-63
2021/09/19 07:53:07;;;;;;;5.38;2.63;;;;;;;15.08;53.64;100857.41;4920117;28;97832;-62
2021/09/19 07:55:34;;;;;;;3.53;2.35;;;;;;;15.14;53.76;100864.41;4919425;28;98926;-60
2021/09/19 07:58:00;;;;;;;4.35;2.60;;;;;;;15.23;53.84;100857.22;4918984;28;98904;-62
2021/09/19 08:00:26;;;;;;;3.33;2.30;;;;;;;15.41;53.70;100866.56;4919129;28;97992;-60
2021/09/19 08:02:54;;;;;;;3.35;1.92;;;;;;;15.54;53.01;100865.03;4919057;28;118149;-62
2021/09/19 08:05:22;;;;;;;4.00;2.47;;;;;;;15.64;52.85;100868.44;4919747;28;98923;-60
2021/09/19 08:07:48;;;;;;;3.47;2.10;;;;;;;15.76;52.19;100867.22;4919161;28;98799;-62
2021/09/19 08:10:14;;;;;;;3.33;1.98;;;;;;;15.81;51.90;100872.59;4918979;28;97890;-60
2021/09/19 08:12:46;;;;;;;3.38;2.17;;;;;;;15.87;51.40;100880.38;4919509;28;97779;-62
2021/09/19 08:15:13;;;;;;;2.70;1.92;;;;;;;15.94;51.14;100877.28;4919792;28;98360;-60
2021/09/19 08:17:39;;;;;;;3.13;1.90;;;;;;;16.02;50.21;100881.28;4918942;28;111484;-62
2021/09/19 08:20:06;;;;;;;3.03;1.98;;;;;;;15.99;49.99;100877.22;4919345;28;98033;-60
2021/09/19 08:22:33;;;;;;;3.35;2.00;;;;;;;15.94;50.87;100880.00;4917060;28;106433;-62
2021/09/19 08:25:00;;;;;;;3.17;2.00;;;;;;;15.94;50.56;100886.25;4917889;28;124983;-60
2021/09/19 08:27:27;;;;;;;2.60;1.98;;;;;;;15.90;50.19;100887.13;4918583;28;101547;-60
2021/09/19 08:29:53;;;;;;;9.60;8.60;;;;;;;15.86;50.30;100886.09;4918145;28;125237;-60
2021/09/19 08:32:19;;;;;;;9.63;7.65;;;;;;;15.85;51.19;100889.94;4917574;28;116656;-60
2021/09/19 08:34:45;;;;;;;4.70;4.00;;;;;;;15.87;50.36;100893.97;4918676;28;106152;-61
2021/09/19 08:37:11;;;;;;;3.80;2.50;;;;;;;15.88;50.88;100890.16;4917980;28;98673;-61
2021/09/19 08:39:38;;;;;;;3.00;2.20;;;;;;;15.91;50.95;100894.19;4917386;28;127655;-61
2021/09/19 08:42:04;;;;;;;3.55;2.25;;;;;;;15.98;50.83;100900.06;4917789;28;116999;-62
2021/09/19 08:44:30;;;;;;;4.05;2.80;;;;;;;16.08;50.90;100896.44;4919244;28;98399;-63
2021/09/19 08:46:57;;;;;;;3.13;2.35;;;;;;;16.22;50.77;100894.56;4917618;28;115813;-61
2021/09/19 08:49:23;;;;;;;3.95;2.05;;;;;;;16.48;49.87;100888.75;4916170;28;112197;-63
2021/09/19 08:51:49;;;;;;;2.65;1.92;;;;;;;16.64;49.05;100896.38;4917598;28;114587;-63
2021/09/19 08:54:16;;;;;;;2.78;1.90;;;;;;;16.75;49.27;100890.78;4918037;28;126815;-61
2021/09/19 08:56:44;;;;;;;3.22;2.20;;;;;;;16.85;49.45;100898.75;4918255;28;100470;-61
2021/09/19 08:59:10;;;;;;;3.13;2.30;;;;;;;16.90;48.83;100894.06;4900070;28;118764;-61
2021/09/19 09:01:37;;;;;;;3.25;2.33;;;;;;;16.96;48.67;100893.97;4917413;28;115837;-63
2021/09/19 09:04:04;;;;;;;2.35;2.03;;;;;;;16.95;48.08;100890.44;4881887;28;113974;-61
2021/09/19 09:06:41;;;;;;;2.95;1.98;;;;;;;16.90;48.58;100890.53;4918068;28;99303;-61
2021/09/19 09:09:17;;;;;;;2.92;2.20;;;;;;;16.92;49.13;100885.56;4926756;28;126890;-62
2021/09/19 09:12:04;;;;;;;2.80;1.92;;;;;;;16.97;49.15;100888.19;4916959;28;97951;-62
2021/09/19 09:14:37;;;;;;;2.42;2.00;;;;;;;17.07;47.99;100889.94;4918179;28;98096;-63
2021/09/19 09:17:24;;;;;;;3.50;1.98;;;;;;;17.26;48.33;100892.59;4918740;28;98472;-62
2021/09/19 09:19:55;;;;;;;2.70;2.00;;;;;;;17.70;47.06;100889.25;4918267;28;98044;-61
2021/09/19 09:22:27;;;;;;;3.38;2.17;;;;;;;18.38;45.40;100887.47;4915681;28;106080;-62
2021/09/19 09:25:17;;;;;;;3.08;1.90;;;;;;;19.52;44.73;100882.31;4918297;28;99149;-62
2021/09/19 09:27:47;;;;;;;3.45;1.70;;;;;;;20.29;41.83;100880.06;4918281;28;98467;-61
2021/09/19 09:30:22;;;;;;;1.80;1.55;;;;;;;20.57;42.54;100877.81;4909189;28;98347;-63
2021/09/19 09:33:05;;;;;;;2.00;1.63;;;;;;;20.71;42.30;100872.94;4919062;28;98244;-61
2021/09/19 09:35:42;;;;;;;2.08;1.50;;;;;;;20.65;41.17;100868.75;4918125;28;98154;-61
2021/09/19 09:38:23;;;;;;;2.47;1.85;;;;;;;20.91;41.30;100884.34;4900246;28;98143;-61
2021/09/19 09:40:49;;;;;;;2.75;1.58;;;;;;;20.68;40.21;100887.28;4914563;28;113373;-61
2021/09/19 09:43:17;;;;;;;2.20;1.83;;;;;;;20.38;40.77;100882.78;4918317;28;98012;-61
2021/09/19 09:45:45;;;;;;;3.17;2.45;;;;;;;20.42;40.53;100879.06;4917236;28;114228;-63
2021/09/19 09:48:31;;;;;;;1.98;1.52;;;;;;;20.78;40.85;100886.13;4916326;28;98989;-63
2021/09/19 09:50:59;;;;;;;1.52;1.20;;;;;;;20.91;39.44;100879.66;4917206;28;98060;-61
2021/09/19 09:53:26;;;;;;;2.63;1.17;;;;;;;20.94;38.89;100876.25;4918224;28;98115;-63
2021/09/19 09:55:53;;;;;;;1.40;0.98;;;;;;;20.97;38.67;100872.06;4918154;28;98523;-61
2021/09/19 09:58:21;;;;;;;2.83;1.42;;;;;;;20.71;39.07;100869.38;4917633;28;98713;-63
2021/09/19 10:00:51;;;;;;;2.60;2.00;;;;;;;20.42;39.60;100870.84;4916992;28;98753;-63
2021/09/19 10:03:18;;;;;;;2.97;1.60;;;;;;;20.09;39.28;100878.78;4918954;28;98271;-63
2021/09/19 10:05:44;;;;;;;2.25;1.08;;;;;;;19.79;39.79;100875.81;4917863;28;98950;-63
2021/09/19 10:08:10;;;;;;;1.63;1.08;;;;;;;19.50;39.79;100883.78;4915223;28;128027;-62
2021/09/19 10:10:43;;;;;;;1.60;1.00;;;;;;;19.22;40.18;100880.47;4917875;28;98381;-62
2021/09/19 10:13:10;;;;;;;2.60;1.30;;;;;;;18.97;40.25;100880.00;4917505;28;98076;-62
2021/09/19 10:15:36;;;;;;;2.50;1.20;;;;;;;18.82;40.74;100878.50;4917038;28;98368;-61
2021/09/19 10:18:02;;;;;;;1.67;1.05;;;;;;;18.71;40.73;100877.16;4918112;28;99147;-61
2021/09/19 10:20:42;;;;;;;1.75;1.20;;;;;;;18.63;41.05;100880.63;4915461;28;98624;-61
2021/09/19 10:23:22;;;;;;;2.13;1.45;;;;;;;18.56;41.61;100874.78;4918874;28;98142;-61
2021/09/19 10:26:08;;;;;;;1.50;1.20;;;;;;;18.52;41.96;100865.59;4918903;28;108062;-61
2021/09/19 10:28:45;;;;;;;3.05;1.45;;;;;;;18.45;41.91;100868.75;4920287;28;98996;-62
2021/09/19 10:31:18;;;;;;;1.92;1.30;;;;;;;18.44;41.53;100864.41;4920314;28;97891;-63
2021/09/19 10:34:07;;;;;;;2.58;1.38;;;;;;;18.49;42.22;100867.03;4921326;28;97964;-63
2021/09/19 10:36:48;;;;;;;2.10;1.20;;;;;;;18.57;41.90;100873.66;4919898;28;98911;-61
2021/09/19 10:39:36;;;;;;;2.67;1.40;;;;;;;18.54;41.78;100872.34;4914805;28;98991;-62
2021/09/19 10:42:16;;;;;;;2.25;1.60;;;;;;;18.54;42.32;100864.16;4920475;28;106622;-63
2021/09/19 10:44:45;;;;;;;1.77;1.40;;;;;;;18.55;42.06;100864.94;4921102;28;97827;-63
2021/09/19 10:47:40;;;;;;;2.58;1.40;;;;;;;18.57;42.00;100865.47;4920518;28;98354;-62
2021/09/19 10:50:28;;;;;;;1.95;1.27;;;;;;;18.50;42.28;100867.81;4921227;28;97768;-62
2021/09/19 10:53:03;;;;;;;2.03;1.38;;;;;;;18.38;41.78;100868.38;4920591;28;98004;-61
2021/09/19 10:55:51;;;;;;;1.75;1.30;;;;;;;18.28;41.96;100865.91;4921096;28;98018;-61
2021/09/19 10:58:31;;;;;;;1.85;1.30;;;;;;;18.20;42.34;100869.38;4919317;28;98456;-62
2021/09/19 11:01:13;;;;;;;2.22;1.45;;;;;;;18.22;42.51;100862.47;4911041;28;115826;-61
2021/09/19 11:03:47;;;;;;;2.22;1.20;;;;;;;18.38;41.86;100869.19;4920525;28;98083;-61
2021/09/19 11:06:29;;;;;;;2.22;1.40;;;;;;;18.62;41.80;100871.59;4902230;28;98067;-61
2021/09/19 11:08:56;;;;;;;1.70;1.30;;;;;;;18.76;40.64;100866.09;4921052;28;99091;-61
2021/09/19 11:11:24;;;;;;;1.98;1.60;;;;;;;18.92;41.03;100862.97;4920241;28;98890;-61
2021/09/19 11:13:59;;;;;;;2.35;1.50;;;;;;;18.95;40.86;100859.63;4918532;28;98139;-63
2021/09/19 11:16:34;;;;;;;2.92;1.90;;;;;;;18.88;41.12;100860.88;4917066;28;108907;-63
2021/09/19 11:19:03;;;;;;;2.63;1.85;;;;;;;18.87;40.66;100867.44;4919881;28;99023;-61
2021/09/19 11:21:40;;;;;;;3.17;1.73;;;;;;;18.93;40.44;100857.19;4918991;28;115785;-62